sensor_id;sensor_type;location;lat;lon;timestamp;P1;durP1;ratioP1;P2;durP2;ratioP2
62401;SDS011;48440;51.224;22.506;2023-02-23T00:02:00;26.42;;;12.07;;
62401;SDS011;48440;51.224;22.506;2023-02-23T00:04:32;30.70;;;13.23;;
62401;SDS011;48440;51.224;22.506;2023-02-23T00:06:58;25.73;;;11.55;;
62401;SDS011;48440;51.224;22.506;2023-02-23T00:09:23;28.52;;;12.15;;
62401;SDS011;48440;51.224;22.506;2023-02-23T00:11:52;24.20;;;11.02;;
62401;SDS011;48440;51.224;22.506;2023-02-23T00:14:20;25.45;;;11.00;;
62401;SDS011;48440;51.224;22.506;2023-02-23T00:16:51;26.27;;;11.43;;
62401;SDS011;48440;51.224;22.506;2023-02-23T00:19:17;26.00;;;11.27;;
62401;SDS011;48440;51.224;22.506;2023-02-23T00:21:43;22.70;;;10.68;;
62401;SDS011;48440;51.224;22.506;2023-02-23T00:24:11;30.95;;;12.63;;
62401;SDS011;48440;51.224;22.506;2023-02-23T00:26:43;21.67;;;10.70;;
62401;SDS011;48440;51.224;22.506;2023-02-23T00:29:16;26.27;;;12.05;;
62401;SDS011;48440;51.224;22.506;2023-02-23T00:31:44;23.88;;;10.32;;
62401;SDS011;48440;51.224;22.506;2023-02-23T00:34:10;23.17;;;10.00;;
62401;SDS011;48440;51.224;22.506;2023-02-23T00:36:36;20.13;;;8.93;;
62401;SDS011;48440;51.224;22.506;2023-02-23T00:39:07;17.50;;;8.35;;
62401;SDS011;48440;51.224;22.506;2023-02-23T00:41:50;16.08;;;7.28;;
62401;SDS011;48440;51.224;22.506;2023-02-23T00:44:17;16.00;;;7.13;;
62401;SDS011;48440;51.224;22.506;2023-02-23T00:46:45;15.63;;;6.97;;
62401;SDS011;48440;51.224;22.506;2023-02-23T00:49:15;16.65;;;7.25;;
62401;SDS011;48440;51.224;22.506;2023-02-23T00:51:41;17.20;;;7.57;;
62401;SDS011;48440;51.224;22.506;2023-02-23T00:54:08;13.95;;;6.65;;
62401;SDS011;48440;51.224;22.506;2023-02-23T00:56:37;13.18;;;6.03;;
62401;SDS011;48440;51.224;22.506;2023-02-23T00:59:03;13.98;;;6.10;;
62401;SDS011;48440;51.224;22.506;2023-02-23T01:01:29;11.20;;;5.03;;
62401;SDS011;48440;51.224;22.506;2023-02-23T01:03:55;13.27;;;4.95;;
62401;SDS011;48440;51.224;22.506;2023-02-23T01:06:20;10.48;;;4.50;;
62401;SDS011;48440;51.224;22.506;2023-02-23T01:08:47;10.32;;;5.30;;
62401;SDS011;48440;51.224;22.506;2023-02-23T01:11:15;10.23;;;4.68;;
62401;SDS011;48440;51.224;22.506;2023-02-23T01:13:43;10.30;;;4.78;;
62401;SDS011;48440;51.224;22.506;2023-02-23T01:16:12;8.43;;;4.38;;
62401;SDS011;48440;51.224;22.506;2023-02-23T01:18:41;12.02;;;4.72;;
62401;SDS011;48440;51.224;22.506;2023-02-23T01:21:16;9.00;;;4.72;;
62401;SDS011;48440;51.224;22.506;2023-02-23T01:24:02;10.30;;;4.70;;
62401;SDS011;48440;51.224;22.506;2023-02-23T01:26:34;10.77;;;4.93;;
62401;SDS011;48440;51.224;22.506;2023-02-23T01:29:04;10.57;;;4.87;;
62401;SDS011;48440;51.224;22.506;2023-02-23T01:31:41;11.63;;;4.95;;
62401;SDS011;48440;51.224;22.506;2023-02-23T01:34:09;10.10;;;5.03;;
62401;SDS011;48440;51.224;22.506;2023-02-23T01:36:37;11.25;;;4.93;;
62401;SDS011;48440;51.224;22.506;2023-02-23T01:39:05;11.88;;;5.45;;
62401;SDS011;48440;51.224;22.506;2023-02-23T01:41:33;12.68;;;5.53;;
62401;SDS011;48440;51.224;22.506;2023-02-23T01:44:02;10.80;;;4.65;;
62401;SDS011;48440;51.224;22.506;2023-02-23T01:46:30;13.45;;;5.18;;
62401;SDS011;48440;51.224;22.506;2023-02-23T01:48:59;14.32;;;5.28;;
62401;SDS011;48440;51.224;22.506;2023-02-23T01:51:32;11.77;;;5.45;;
62401;SDS011;48440;51.224;22.506;2023-02-23T01:56:40;9.02;;;4.93;;
62401;SDS011;48440;51.224;22.506;2023-02-23T01:59:13;10.88;;;4.70;;
62401;SDS011;48440;51.224;22.506;2023-02-23T02:01:40;10.35;;;4.50;;
62401;SDS011;48440;51.224;22.506;2023-02-23T02:04:07;10.40;;;4.93;;
62401;SDS011;48440;51.224;22.506;2023-02-23T02:06:40;10.13;;;4.85;;
62401;SDS011;48440;51.224;22.506;2023-02-23T02:09:10;11.50;;;4.57;;
62401;SDS011;48440;51.224;22.506;2023-02-23T02:11:42;10.30;;;4.47;;
62401;SDS011;48440;51.224;22.506;2023-02-23T02:32:39;8.77;;;4.70;;
62401;SDS011;48440;51.224;22.506;2023-02-23T02:35:53;9.75;;;4.55;;
62401;SDS011;48440;51.224;22.506;2023-02-23T02:38:45;10.05;;;4.25;;
62401;SDS011;48440;51.224;22.506;2023-02-23T02:46:45;10.18;;;4.13;;
62401;SDS011;48440;51.224;22.506;2023-02-23T02:55:03;9.93;;;4.90;;
62401;SDS011;48440;51.224;22.506;2023-02-23T02:57:33;9.05;;;4.55;;
62401;SDS011;48440;51.224;22.506;2023-02-23T02:59:59;9.65;;;4.63;;
62401;SDS011;48440;51.224;22.506;2023-02-23T03:02:44;12.38;;;5.05;;
62401;SDS011;48440;51.224;22.506;2023-02-23T03:05:41;9.77;;;4.20;;
62401;SDS011;48440;51.224;22.506;2023-02-23T03:11:46;10.18;;;4.57;;
62401;SDS011;48440;51.224;22.506;2023-02-23T03:14:56;9.98;;;5.07;;
62401;SDS011;48440;51.224;22.506;2023-02-23T03:17:46;12.00;;;5.40;;
62401;SDS011;48440;51.224;22.506;2023-02-23T03:20:40;10.00;;;4.70;;
62401;SDS011;48440;51.224;22.506;2023-02-23T03:23:34;10.45;;;4.90;;
62401;SDS011;48440;51.224;22.506;2023-02-23T03:26:40;8.93;;;4.20;;
62401;SDS011;48440;51.224;22.506;2023-02-23T03:29:53;8.27;;;4.40;;
62401;SDS011;48440;51.224;22.506;2023-02-23T03:32:48;12.82;;;5.63;;
62401;SDS011;48440;51.224;22.506;2023-02-23T03:38:37;10.35;;;4.28;;
62401;SDS011;48440;51.224;22.506;2023-02-23T03:41:28;10.52;;;5.28;;
62401;SDS011;48440;51.224;22.506;2023-02-23T03:44:19;10.15;;;4.18;;
62401;SDS011;48440;51.224;22.506;2023-02-23T03:47:10;10.13;;;4.72;;
62401;SDS011;48440;51.224;22.506;2023-02-23T03:49:57;10.18;;;4.57;;
62401;SDS011;48440;51.224;22.506;2023-02-23T03:52:46;10.30;;;4.22;;
62401;SDS011;48440;51.224;22.506;2023-02-23T03:55:36;9.98;;;4.75;;
62401;SDS011;48440;51.224;22.506;2023-02-23T03:58:27;10.32;;;4.82;;
62401;SDS011;48440;51.224;22.506;2023-02-23T04:01:16;8.85;;;4.50;;
62401;SDS011;48440;51.224;22.506;2023-02-23T04:04:02;9.50;;;4.50;;
62401;SDS011;48440;51.224;22.506;2023-02-23T04:06:50;8.13;;;4.25;;
62401;SDS011;48440;51.224;22.506;2023-02-23T04:09:37;8.98;;;4.55;;
62401;SDS011;48440;51.224;22.506;2023-02-23T04:15:39;10.82;;;4.60;;
62401;SDS011;48440;51.224;22.506;2023-02-23T04:20:40;10.48;;;4.90;;
62401;SDS011;48440;51.224;22.506;2023-02-23T04:23:06;9.63;;;4.30;;
62401;SDS011;48440;51.224;22.506;2023-02-23T04:25:32;11.15;;;4.75;;
62401;SDS011;48440;51.224;22.506;2023-02-23T04:27:57;9.85;;;4.65;;
62401;SDS011;48440;51.224;22.506;2023-02-23T04:30:23;8.57;;;4.47;;
62401;SDS011;48440;51.224;22.506;2023-02-23T04:32:50;12.23;;;5.43;;
62401;SDS011;48440;51.224;22.506;2023-02-23T04:35:17;10.95;;;5.18;;
62401;SDS011;48440;51.224;22.506;2023-02-23T04:37:42;8.10;;;4.38;;
62401;SDS011;48440;51.224;22.506;2023-02-23T04:40:08;8.40;;;4.40;;
62401;SDS011;48440;51.224;22.506;2023-02-23T04:42:34;11.48;;;6.18;;
62401;SDS011;48440;51.224;22.506;2023-02-23T04:45:03;9.65;;;5.22;;
62401;SDS011;48440;51.224;22.506;2023-02-23T04:47:29;11.05;;;5.63;;
62401;SDS011;48440;51.224;22.506;2023-02-23T04:49:54;8.93;;;4.95;;
62401;SDS011;48440;51.224;22.506;2023-02-23T04:52:20;11.27;;;5.00;;
62401;SDS011;48440;51.224;22.506;2023-02-23T04:54:46;11.07;;;4.80;;
62401;SDS011;48440;51.224;22.506;2023-02-23T04:57:12;12.60;;;5.38;;
62401;SDS011;48440;51.224;22.506;2023-02-23T04:59:37;10.52;;;4.88;;
62401;SDS011;48440;51.224;22.506;2023-02-23T05:02:03;13.52;;;5.40;;
62401;SDS011;48440;51.224;22.506;2023-02-23T05:04:29;9.70;;;4.68;;
62401;SDS011;48440;51.224;22.506;2023-02-23T05:06:55;11.00;;;5.38;;
62401;SDS011;48440;51.224;22.506;2023-02-23T05:09:20;9.68;;;4.75;;
62401;SDS011;48440;51.224;22.506;2023-02-23T05:11:46;9.55;;;4.68;;
62401;SDS011;48440;51.224;22.506;2023-02-23T05:14:11;8.15;;;4.70;;
62401;SDS011;48440;51.224;22.506;2023-02-23T05:16:37;11.90;;;5.00;;
62401;SDS011;48440;51.224;22.506;2023-02-23T05:19:03;10.73;;;4.88;;
62401;SDS011;48440;51.224;22.506;2023-02-23T05:21:29;9.88;;;4.70;;
62401;SDS011;48440;51.224;22.506;2023-02-23T05:23:55;9.93;;;4.43;;
62401;SDS011;48440;51.224;22.506;2023-02-23T05:26:21;10.57;;;4.90;;
62401;SDS011;48440;51.224;22.506;2023-02-23T05:28:48;7.60;;;4.30;;
62401;SDS011;48440;51.224;22.506;2023-02-23T05:31:14;10.90;;;4.85;;
62401;SDS011;48440;51.224;22.506;2023-02-23T05:33:39;8.65;;;4.15;;
62401;SDS011;48440;51.224;22.506;2023-02-23T05:36:13;9.55;;;4.50;;
62401;SDS011;48440;51.224;22.506;2023-02-23T05:38:41;10.43;;;3.63;;
62401;SDS011;48440;51.224;22.506;2023-02-23T05:41:08;7.07;;;3.78;;
62401;SDS011;48440;51.224;22.506;2023-02-23T05:43:35;8.15;;;3.60;;
62401;SDS011;48440;51.224;22.506;2023-02-23T05:46:20;7.15;;;3.53;;
62401;SDS011;48440;51.224;22.506;2023-02-23T05:48:49;8.05;;;4.00;;
62401;SDS011;48440;51.224;22.506;2023-02-23T05:51:16;7.68;;;4.03;;
62401;SDS011;48440;51.224;22.506;2023-02-23T05:53:42;6.40;;;3.25;;
62401;SDS011;48440;51.224;22.506;2023-02-23T05:56:11;8.40;;;3.80;;
62401;SDS011;48440;51.224;22.506;2023-02-23T05:58:44;7.88;;;3.90;;
62401;SDS011;48440;51.224;22.506;2023-02-23T06:01:18;8.18;;;3.92;;
62401;SDS011;48440;51.224;22.506;2023-02-23T06:03:45;7.40;;;3.35;;
62401;SDS011;48440;51.224;22.506;2023-02-23T06:06:11;8.48;;;3.70;;
62401;SDS011;48440;51.224;22.506;2023-02-23T06:08:37;6.00;;;3.45;;
62401;SDS011;48440;51.224;22.506;2023-02-23T06:11:03;8.25;;;3.75;;
62401;SDS011;48440;51.224;22.506;2023-02-23T06:13:29;6.72;;;3.40;;
62401;SDS011;48440;51.224;22.506;2023-02-23T06:15:55;8.30;;;3.58;;
62401;SDS011;48440;51.224;22.506;2023-02-23T06:18:22;6.88;;;3.30;;
62401;SDS011;48440;51.224;22.506;2023-02-23T06:20:47;7.20;;;3.33;;
62401;SDS011;48440;51.224;22.506;2023-02-23T06:23:13;5.55;;;2.92;;
62401;SDS011;48440;51.224;22.506;2023-02-23T06:25:40;8.38;;;3.53;;
62401;SDS011;48440;51.224;22.506;2023-02-23T06:28:07;6.80;;;3.22;;
62401;SDS011;48440;51.224;22.506;2023-02-23T06:30:33;5.88;;;3.25;;
62401;SDS011;48440;51.224;22.506;2023-02-23T06:33:00;7.10;;;3.70;;
62401;SDS011;48440;51.224;22.506;2023-02-23T06:35:44;6.40;;;3.00;;
62401;SDS011;48440;51.224;22.506;2023-02-23T06:38:14;8.68;;;3.97;;
62401;SDS011;48440;51.224;22.506;2023-02-23T06:40:42;7.38;;;3.10;;
62401;SDS011;48440;51.224;22.506;2023-02-23T06:43:08;7.68;;;3.05;;
62401;SDS011;48440;51.224;22.506;2023-02-23T06:45:34;6.30;;;3.15;;
62401;SDS011;48440;51.224;22.506;2023-02-23T06:48:00;8.15;;;3.47;;
62401;SDS011;48440;51.224;22.506;2023-02-23T06:50:26;6.43;;;3.20;;
62401;SDS011;48440;51.224;22.506;2023-02-23T06:52:52;6.82;;;3.70;;
62401;SDS011;48440;51.224;22.506;2023-02-23T06:55:18;9.13;;;3.80;;
62401;SDS011;48440;51.224;22.506;2023-02-23T06:57:44;6.80;;;3.22;;
62401;SDS011;48440;51.224;22.506;2023-02-23T07:00:12;10.02;;;3.50;;
62401;SDS011;48440;51.224;22.506;2023-02-23T07:02:39;6.57;;;3.13;;
62401;SDS011;48440;51.224;22.506;2023-02-23T07:05:06;8.70;;;3.50;;
62401;SDS011;48440;51.224;22.506;2023-02-23T07:07:32;7.30;;;3.30;;
62401;SDS011;48440;51.224;22.506;2023-02-23T07:09:58;7.57;;;3.53;;
62401;SDS011;48440;51.224;22.506;2023-02-23T07:12:23;10.07;;;3.38;;
62401;SDS011;48440;51.224;22.506;2023-02-23T07:14:49;7.55;;;3.90;;
62401;SDS011;48440;51.224;22.506;2023-02-23T07:17:15;6.78;;;3.45;;
62401;SDS011;48440;51.224;22.506;2023-02-23T07:19:42;9.15;;;3.92;;
62401;SDS011;48440;51.224;22.506;2023-02-23T07:22:07;9.43;;;3.83;;
62401;SDS011;48440;51.224;22.506;2023-02-23T07:24:34;11.98;;;4.50;;
62401;SDS011;48440;51.224;22.506;2023-02-23T07:27:00;12.40;;;4.10;;
62401;SDS011;48440;51.224;22.506;2023-02-23T07:29:25;10.75;;;3.92;;
62401;SDS011;48440;51.224;22.506;2023-02-23T07:31:52;12.25;;;4.03;;
62401;SDS011;48440;51.224;22.506;2023-02-23T07:34:18;8.18;;;3.47;;
62401;SDS011;48440;51.224;22.506;2023-02-23T07:36:44;7.60;;;3.85;;
62401;SDS011;48440;51.224;22.506;2023-02-23T07:39:09;8.93;;;4.18;;
62401;SDS011;48440;51.224;22.506;2023-02-23T07:41:35;7.63;;;3.80;;
62401;SDS011;48440;51.224;22.506;2023-02-23T07:44:00;9.65;;;4.03;;
62401;SDS011;48440;51.224;22.506;2023-02-23T07:46:26;8.32;;;3.83;;
62401;SDS011;48440;51.224;22.506;2023-02-23T07:48:52;9.80;;;4.03;;
62401;SDS011;48440;51.224;22.506;2023-02-23T07:51:18;6.97;;;3.30;;
62401;SDS011;48440;51.224;22.506;2023-02-23T07:53:44;8.77;;;3.67;;
62401;SDS011;48440;51.224;22.506;2023-02-23T07:56:10;8.20;;;3.45;;
62401;SDS011;48440;51.224;22.506;2023-02-23T07:58:37;8.85;;;3.67;;
62401;SDS011;48440;51.224;22.506;2023-02-23T08:01:10;6.72;;;3.55;;
62401;SDS011;48440;51.224;22.506;2023-02-23T08:03:37;8.07;;;3.70;;
62401;SDS011;48440;51.224;22.506;2023-02-23T08:06:03;7.38;;;3.65;;
62401;SDS011;48440;51.224;22.506;2023-02-23T08:08:30;6.50;;;3.60;;
62401;SDS011;48440;51.224;22.506;2023-02-23T08:11:03;8.20;;;3.58;;
62401;SDS011;48440;51.224;22.506;2023-02-23T08:13:29;7.10;;;3.45;;
62401;SDS011;48440;51.224;22.506;2023-02-23T08:15:56;8.35;;;4.03;;
62401;SDS011;48440;51.224;22.506;2023-02-23T08:18:22;8.85;;;3.67;;
62401;SDS011;48440;51.224;22.506;2023-02-23T08:20:48;8.45;;;3.50;;
62401;SDS011;48440;51.224;22.506;2023-02-23T08:23:14;7.13;;;3.38;;
62401;SDS011;48440;51.224;22.506;2023-02-23T08:25:43;7.50;;;3.97;;
62401;SDS011;48440;51.224;22.506;2023-02-23T08:28:09;9.75;;;4.22;;
62401;SDS011;48440;51.224;22.506;2023-02-23T08:30:35;6.25;;;3.70;;
62401;SDS011;48440;51.224;22.506;2023-02-23T08:33:01;6.90;;;3.97;;
62401;SDS011;48440;51.224;22.506;2023-02-23T08:35:27;7.03;;;3.88;;
62401;SDS011;48440;51.224;22.506;2023-02-23T08:37:56;7.60;;;3.63;;
62401;SDS011;48440;51.224;22.506;2023-02-23T08:40:22;8.32;;;4.05;;
62401;SDS011;48440;51.224;22.506;2023-02-23T08:42:50;6.72;;;3.45;;
62401;SDS011;48440;51.224;22.506;2023-02-23T08:45:17;7.78;;;3.63;;
62401;SDS011;48440;51.224;22.506;2023-02-23T08:47:43;6.60;;;3.78;;
62401;SDS011;48440;51.224;22.506;2023-02-23T08:50:10;6.43;;;3.65;;
62401;SDS011;48440;51.224;22.506;2023-02-23T08:52:43;5.68;;;3.25;;
62401;SDS011;48440;51.224;22.506;2023-02-23T08:55:11;6.90;;;4.07;;
62401;SDS011;48440;51.224;22.506;2023-02-23T08:57:38;7.35;;;3.78;;
62401;SDS011;48440;51.224;22.506;2023-02-23T09:00:04;6.47;;;3.70;;
62401;SDS011;48440;51.224;22.506;2023-02-23T09:02:40;7.82;;;3.85;;
62401;SDS011;48440;51.224;22.506;2023-02-23T09:05:07;7.93;;;3.85;;
62401;SDS011;48440;51.224;22.506;2023-02-23T09:07:33;7.05;;;4.22;;
62401;SDS011;48440;51.224;22.506;2023-02-23T09:09:59;6.97;;;3.55;;
62401;SDS011;48440;51.224;22.506;2023-02-23T09:12:25;6.63;;;3.50;;
62401;SDS011;48440;51.224;22.506;2023-02-23T09:14:54;6.30;;;3.72;;
62401;SDS011;48440;51.224;22.506;2023-02-23T09:17:27;5.90;;;3.28;;
62401;SDS011;48440;51.224;22.506;2023-02-23T09:19:57;7.63;;;3.50;;
62401;SDS011;48440;51.224;22.506;2023-02-23T09:26:01;6.30;;;3.45;;
62401;SDS011;48440;51.224;22.506;2023-02-23T09:28:34;7.90;;;3.85;;
62401;SDS011;48440;51.224;22.506;2023-02-23T09:31:19;6.80;;;3.60;;
62401;SDS011;48440;51.224;22.506;2023-02-23T09:33:51;7.72;;;4.30;;
62401;SDS011;48440;51.224;22.506;2023-02-23T09:36:47;7.78;;;3.95;;
62401;SDS011;48440;51.224;22.506;2023-02-23T10:14:03;8.15;;;4.40;;
62401;SDS011;48440;51.224;22.506;2023-02-23T10:20:11;7.80;;;4.15;;
62401;SDS011;48440;51.224;22.506;2023-02-23T10:25:42;8.73;;;4.07;;
62401;SDS011;48440;51.224;22.506;2023-02-23T10:32:17;7.13;;;4.38;;
62401;SDS011;48440;51.224;22.506;2023-02-23T10:34:47;8.55;;;4.43;;
62401;SDS011;48440;51.224;22.506;2023-02-23T10:37:22;8.00;;;4.18;;
62401;SDS011;48440;51.224;22.506;2023-02-23T10:39:49;8.27;;;4.53;;
62401;SDS011;48440;51.224;22.506;2023-02-23T10:42:24;9.27;;;4.75;;
62401;SDS011;48440;51.224;22.506;2023-02-23T10:44:53;9.35;;;4.53;;
62401;SDS011;48440;51.224;22.506;2023-02-23T10:47:25;9.93;;;4.28;;
62401;SDS011;48440;51.224;22.506;2023-02-23T10:52:56;9.85;;;4.22;;
62401;SDS011;48440;51.224;22.506;2023-02-23T10:58:46;9.93;;;4.78;;
62401;SDS011;48440;51.224;22.506;2023-02-23T11:01:35;8.38;;;4.65;;
62401;SDS011;48440;51.224;22.506;2023-02-23T11:10:13;6.55;;;3.85;;
62401;SDS011;48440;51.224;22.506;2023-02-23T11:16:41;10.45;;;5.70;;
62401;SDS011;48440;51.224;22.506;2023-02-23T11:19:20;10.18;;;4.88;;
62401;SDS011;48440;51.224;22.506;2023-02-23T11:22:04;11.27;;;4.63;;
62401;SDS011;48440;51.224;22.506;2023-02-23T11:24:42;8.68;;;4.63;;
62401;SDS011;48440;51.224;22.506;2023-02-23T11:27:19;9.57;;;5.13;;
62401;SDS011;48440;51.224;22.506;2023-02-23T11:29:50;9.40;;;5.05;;
62401;SDS011;48440;51.224;22.506;2023-02-23T11:32:30;10.05;;;4.72;;
62401;SDS011;48440;51.224;22.506;2023-02-23T11:37:43;8.05;;;4.85;;
62401;SDS011;48440;51.224;22.506;2023-02-23T11:40:19;9.73;;;4.75;;
62401;SDS011;48440;51.224;22.506;2023-02-23T11:45:22;7.95;;;4.65;;
62401;SDS011;48440;51.224;22.506;2023-02-23T11:47:51;10.48;;;5.53;;
62401;SDS011;48440;51.224;22.506;2023-02-23T11:53:14;7.90;;;4.70;;
62401;SDS011;48440;51.224;22.506;2023-02-23T11:55:50;10.85;;;5.97;;
62401;SDS011;48440;51.224;22.506;2023-02-23T12:01:17;8.93;;;5.45;;
62401;SDS011;48440;51.224;22.506;2023-02-23T12:03:52;9.18;;;4.78;;
62401;SDS011;48440;51.224;22.506;2023-02-23T12:08:54;9.90;;;5.22;;
62401;SDS011;48440;51.224;22.506;2023-02-23T12:11:27;9.73;;;5.70;;
62401;SDS011;48440;51.224;22.506;2023-02-23T12:14:02;10.32;;;5.72;;
62401;SDS011;48440;51.224;22.506;2023-02-23T12:16:47;10.82;;;5.35;;
62401;SDS011;48440;51.224;22.506;2023-02-23T12:21:44;11.27;;;5.78;;
62401;SDS011;48440;51.224;22.506;2023-02-23T12:27:13;9.32;;;5.20;;
62401;SDS011;48440;51.224;22.506;2023-02-23T12:37:44;11.00;;;5.60;;
62401;SDS011;48440;51.224;22.506;2023-02-23T12:40:26;10.75;;;5.78;;
62401;SDS011;48440;51.224;22.506;2023-02-23T12:43:04;11.88;;;6.22;;
62401;SDS011;48440;51.224;22.506;2023-02-23T12:53:52;9.95;;;5.53;;
62401;SDS011;48440;51.224;22.506;2023-02-23T12:56:27;9.60;;;5.53;;
62401;SDS011;48440;51.224;22.506;2023-02-23T13:01:56;8.18;;;5.88;;
62401;SDS011;48440;51.224;22.506;2023-02-23T13:04:40;11.40;;;6.35;;
62401;SDS011;48440;51.224;22.506;2023-02-23T13:07:14;9.60;;;5.40;;
62401;SDS011;48440;51.224;22.506;2023-02-23T13:18:20;11.38;;;5.45;;
62401;SDS011;48440;51.224;22.506;2023-02-23T13:21:00;11.25;;;5.40;;
62401;SDS011;48440;51.224;22.506;2023-02-23T13:28:56;13.45;;;6.63;;
62401;SDS011;48440;51.224;22.506;2023-02-23T13:31:34;12.25;;;6.15;;
62401;SDS011;48440;51.224;22.506;2023-02-23T13:34:03;12.27;;;6.80;;
62401;SDS011;48440;51.224;22.506;2023-02-23T13:36:33;10.73;;;6.47;;
62401;SDS011;48440;51.224;22.506;2023-02-23T13:39:14;13.43;;;6.85;;
62401;SDS011;48440;51.224;22.506;2023-02-23T13:48:02;16.88;;;7.13;;
62401;SDS011;48440;51.224;22.506;2023-02-23T13:50:41;10.63;;;6.32;;
62401;SDS011;48440;51.224;22.506;2023-02-23T13:53:26;13.48;;;6.70;;
62401;SDS011;48440;51.224;22.506;2023-02-23T13:56:05;14.10;;;6.28;;
62401;SDS011;48440;51.224;22.506;2023-02-23T13:58:33;14.88;;;7.70;;
62401;SDS011;48440;51.224;22.506;2023-02-23T14:06:26;13.98;;;7.18;;
62401;SDS011;48440;51.224;22.506;2023-02-23T14:08:57;12.23;;;7.10;;
62401;SDS011;48440;51.224;22.506;2023-02-23T14:11:43;12.52;;;6.72;;
62401;SDS011;48440;51.224;22.506;2023-02-23T14:14:13;13.43;;;7.53;;
62401;SDS011;48440;51.224;22.506;2023-02-23T14:22:37;12.10;;;6.65;;
62401;SDS011;48440;51.224;22.506;2023-02-23T14:28:13;10.82;;;6.75;;
62401;SDS011;48440;51.224;22.506;2023-02-23T14:38:45;10.30;;;6.35;;
62401;SDS011;48440;51.224;22.506;2023-02-23T14:44:34;13.60;;;7.32;;
62401;SDS011;48440;51.224;22.506;2023-02-23T14:47:07;11.38;;;7.63;;
62401;SDS011;48440;51.224;22.506;2023-02-23T14:49:42;15.15;;;7.47;;
62401;SDS011;48440;51.224;22.506;2023-02-23T14:52:31;13.13;;;7.97;;
62401;SDS011;48440;51.224;22.506;2023-02-23T14:57:36;15.15;;;8.18;;
62401;SDS011;48440;51.224;22.506;2023-02-23T15:00:25;13.77;;;7.80;;
62401;SDS011;48440;51.224;22.506;2023-02-23T15:05:31;12.95;;;7.35;;
62401;SDS011;48440;51.224;22.506;2023-02-23T15:08:00;13.27;;;7.82;;
62401;SDS011;48440;51.224;22.506;2023-02-23T15:10:31;13.80;;;7.57;;
62401;SDS011;48440;51.224;22.506;2023-02-23T15:12:59;17.90;;;8.60;;
62401;SDS011;48440;51.224;22.506;2023-02-23T15:15:31;15.57;;;7.72;;
62401;SDS011;48440;51.224;22.506;2023-02-23T15:17:57;14.90;;;7.45;;
62401;SDS011;48440;51.224;22.506;2023-02-23T15:20:28;14.30;;;7.63;;
62401;SDS011;48440;51.224;22.506;2023-02-23T15:22:58;13.00;;;8.48;;
62401;SDS011;48440;51.224;22.506;2023-02-23T15:25:33;15.98;;;8.07;;
62401;SDS011;48440;51.224;22.506;2023-02-23T15:31:00;14.45;;;9.20;;
62401;SDS011;48440;51.224;22.506;2023-02-23T15:33:28;15.50;;;8.20;;
62401;SDS011;48440;51.224;22.506;2023-02-23T15:36:39;14.88;;;7.65;;
62401;SDS011;48440;51.224;22.506;2023-02-23T15:38:43;16.13;;;8.10;;
62401;SDS011;48440;51.224;22.506;2023-02-23T15:41:26;18.40;;;9.32;;
62401;SDS011;48440;51.224;22.506;2023-02-23T15:46:36;15.77;;;9.32;;
62401;SDS011;48440;51.224;22.506;2023-02-23T15:49:02;16.88;;;8.82;;
62401;SDS011;48440;51.224;22.506;2023-02-23T15:56:57;19.08;;;9.70;;
62401;SDS011;48440;51.224;22.506;2023-02-23T15:59:27;17.73;;;9.55;;
62401;SDS011;48440;51.224;22.506;2023-02-23T16:01:57;16.25;;;9.52;;
62401;SDS011;48440;51.224;22.506;2023-02-23T16:04:27;19.38;;;9.35;;
62401;SDS011;48440;51.224;22.506;2023-02-23T16:07:16;17.08;;;10.02;;
62401;SDS011;48440;51.224;22.506;2023-02-23T16:09:46;17.48;;;10.00;;
62401;SDS011;48440;51.224;22.506;2023-02-23T16:15:01;20.52;;;10.50;;
62401;SDS011;48440;51.224;22.506;2023-02-23T16:22:41;22.67;;;10.90;;
62401;SDS011;48440;51.224;22.506;2023-02-23T16:25:11;22.65;;;11.23;;
62401;SDS011;48440;51.224;22.506;2023-02-23T16:27:42;21.88;;;11.23;;
62401;SDS011;48440;51.224;22.506;2023-02-23T16:30:22;28.02;;;12.52;;
62401;SDS011;48440;51.224;22.506;2023-02-23T16:33:06;22.63;;;11.50;;
62401;SDS011;48440;51.224;22.506;2023-02-23T16:35:47;24.92;;;12.23;;
62401;SDS011;48440;51.224;22.506;2023-02-23T16:38:36;24.60;;;12.25;;
62401;SDS011;48440;51.224;22.506;2023-02-23T16:41:15;24.85;;;12.05;;
62401;SDS011;48440;51.224;22.506;2023-02-23T16:43:44;26.45;;;12.82;;
62401;SDS011;48440;51.224;22.506;2023-02-23T16:46:13;28.38;;;13.60;;
62401;SDS011;48440;51.224;22.506;2023-02-23T16:48:39;25.50;;;13.43;;
62401;SDS011;48440;51.224;22.506;2023-02-23T16:51:08;25.73;;;12.98;;
62401;SDS011;48440;51.224;22.506;2023-02-23T16:53:38;28.13;;;14.20;;
62401;SDS011;48440;51.224;22.506;2023-02-23T16:56:04;30.50;;;13.68;;
62401;SDS011;48440;51.224;22.506;2023-02-23T16:58:36;30.65;;;14.85;;
62401;SDS011;48440;51.224;22.506;2023-02-23T17:01:03;37.03;;;15.00;;
62401;SDS011;48440;51.224;22.506;2023-02-23T17:03:30;33.13;;;15.02;;
62401;SDS011;48440;51.224;22.506;2023-02-23T17:05:55;31.67;;;15.10;;
62401;SDS011;48440;51.224;22.506;2023-02-23T17:08:22;30.65;;;15.52;;
62401;SDS011;48440;51.224;22.506;2023-02-23T17:13:46;38.22;;;15.85;;
62401;SDS011;48440;51.224;22.506;2023-02-23T17:16:12;31.27;;;15.07;;
62401;SDS011;48440;51.224;22.506;2023-02-23T17:21:12;33.78;;;16.23;;
62401;SDS011;48440;51.224;22.506;2023-02-23T17:24:21;35.42;;;16.45;;
62401;SDS011;48440;51.224;22.506;2023-02-23T17:26:50;34.80;;;17.67;;
62401;SDS011;48440;51.224;22.506;2023-02-23T17:29:27;35.13;;;16.63;;
62401;SDS011;48440;51.224;22.506;2023-02-23T17:32:00;35.75;;;17.00;;
62401;SDS011;48440;51.224;22.506;2023-02-23T17:34:29;39.38;;;16.48;;
62401;SDS011;48440;51.224;22.506;2023-02-23T17:36:55;37.28;;;16.40;;
62401;SDS011;48440;51.224;22.506;2023-02-23T17:42:05;31.58;;;16.50;;
62401;SDS011;48440;51.224;22.506;2023-02-23T17:44:30;36.95;;;16.35;;
62401;SDS011;48440;51.224;22.506;2023-02-23T17:46:56;30.08;;;15.98;;
62401;SDS011;48440;51.224;22.506;2023-02-23T17:49:22;38.25;;;16.33;;
62401;SDS011;48440;51.224;22.506;2023-02-23T17:52:02;34.05;;;16.63;;
62401;SDS011;48440;51.224;22.506;2023-02-23T17:54:36;35.83;;;16.58;;
62401;SDS011;48440;51.224;22.506;2023-02-23T17:57:01;32.78;;;16.83;;
62401;SDS011;48440;51.224;22.506;2023-02-23T17:59:27;29.83;;;15.18;;
62401;SDS011;48440;51.224;22.506;2023-02-23T18:01:53;32.35;;;15.60;;
62401;SDS011;48440;51.224;22.506;2023-02-23T18:04:21;30.95;;;14.82;;
62401;SDS011;48440;51.224;22.506;2023-02-23T18:06:47;32.97;;;15.45;;
62401;SDS011;48440;51.224;22.506;2023-02-23T18:09:13;33.10;;;14.60;;
62401;SDS011;48440;51.224;22.506;2023-02-23T18:11:39;33.35;;;15.13;;
62401;SDS011;48440;51.224;22.506;2023-02-23T18:14:06;33.20;;;14.10;;
62401;SDS011;48440;51.224;22.506;2023-02-23T18:16:33;30.48;;;14.63;;
62401;SDS011;48440;51.224;22.506;2023-02-23T18:18:59;27.50;;;13.57;;
62401;SDS011;48440;51.224;22.506;2023-02-23T18:21:25;30.45;;;13.38;;
62401;SDS011;48440;51.224;22.506;2023-02-23T18:23:51;28.00;;;14.02;;
62401;SDS011;48440;51.224;22.506;2023-02-23T18:26:18;27.15;;;13.55;;
62401;SDS011;48440;51.224;22.506;2023-02-23T18:28:47;25.17;;;12.30;;
62401;SDS011;48440;51.224;22.506;2023-02-23T18:31:14;25.95;;;11.93;;
62401;SDS011;48440;51.224;22.506;2023-02-23T18:33:41;26.17;;;11.85;;
62401;SDS011;48440;51.224;22.506;2023-02-23T18:36:25;28.25;;;13.23;;